createdAt,value
2023-04-12T00:00:52.789Z,1.48
2023-04-12T00:03:21.360Z,1.15
2023-04-12T00:05:48.650Z,2.67
2023-04-12T00:08:16.717Z,2.55
2023-04-12T00:10:43.634Z,1.10
2023-04-12T00:13:10.205Z,1.58
2023-04-12T00:15:37.081Z,1.33
2023-04-12T00:18:03.925Z,0.90
2023-04-12T00:20:30.553Z,1.42
2023-04-12T00:22:57.763Z,2.03
2023-04-12T00:25:24.613Z,1.17
2023-04-12T00:27:51.426Z,2.13
2023-04-12T00:30:18.177Z,1.23
2023-04-12T00:32:44.963Z,0.80
2023-04-12T00:35:11.480Z,1.90
2023-04-12T00:37:38.759Z,1.38
2023-04-12T00:40:08.366Z,1.98
2023-04-12T00:42:36.990Z,1.70
2023-04-12T00:45:04.276Z,1.50
2023-04-12T00:47:30.979Z,1.90
2023-04-12T00:49:58.969Z,2.25
2023-04-12T00:52:28.147Z,1.13
2023-04-12T00:54:54.882Z,2.15
2023-04-12T00:57:22.382Z,1.13
2023-04-12T00:59:49.203Z,0.80
2023-04-12T01:02:17.504Z,1.40
2023-04-12T01:04:45.087Z,1.45
2023-04-12T01:07:19.093Z,1.23
2023-04-12T01:09:52.078Z,0.77
2023-04-12T01:12:43.719Z,1.30
2023-04-12T01:15:16.323Z,1.35
2023-04-12T01:18:08.413Z,1.35
2023-04-12T01:20:44.855Z,1.13
2023-04-12T01:23:43.638Z,1.25
2023-04-12T01:26:15.698Z,1.33
2023-04-12T01:28:44.979Z,1.50
2023-04-12T01:31:14.041Z,1.30
2023-04-12T01:33:43.211Z,0.95
2023-04-12T01:36:16.843Z,0.70
2023-04-12T01:38:43.732Z,0.77
2023-04-12T01:41:10.471Z,1.05
2023-04-12T01:43:44.475Z,1.35
2023-04-12T01:46:12.953Z,1.27
2023-04-12T01:48:39.738Z,1.52
2023-04-12T01:51:11.618Z,0.75
2023-04-12T01:53:44.699Z,1.08
2023-04-12T01:56:12.192Z,1.38
2023-04-12T01:58:41.391Z,0.95
2023-04-12T02:01:09.337Z,1.10
2023-04-12T02:03:37.590Z,0.57
2023-04-12T02:06:05.934Z,0.50
2023-04-12T02:08:33.281Z,1.15
2023-04-12T02:10:59.786Z,1.00
2023-04-12T02:13:26.698Z,0.47
2023-04-12T02:15:54.867Z,1.38
2023-04-12T02:18:21.739Z,1.13
2023-04-12T02:20:49.792Z,1.17
2023-04-12T02:23:16.378Z,1.40
2023-04-12T02:25:44.138Z,0.95
2023-04-12T02:28:10.627Z,0.90
2023-04-12T02:30:38.374Z,1.38
2023-04-12T02:33:06.211Z,1.15
2023-04-12T02:35:32.899Z,0.60
2023-04-12T02:37:59.375Z,0.70
2023-04-12T02:40:26.042Z,1.20
2023-04-12T02:42:52.537Z,1.08
2023-04-12T02:45:18.995Z,0.63
2023-04-12T02:47:45.538Z,0.63
2023-04-12T02:50:12.057Z,1.42
2023-04-12T02:52:38.671Z,1.30
2023-04-12T02:55:05.681Z,0.65
2023-04-12T02:57:32.192Z,1.42
2023-04-12T02:59:58.675Z,0.60
2023-04-12T03:02:26.062Z,0.63
2023-04-12T03:04:53.289Z,0.80
2023-04-12T03:07:22.050Z,1.02
2023-04-12T03:09:50.612Z,0.70
2023-04-12T03:12:17.299Z,0.70
2023-04-12T03:14:43.862Z,0.95
2023-04-12T03:17:10.961Z,0.77
2023-04-12T03:19:37.715Z,0.40
2023-04-12T03:22:04.639Z,0.30
2023-04-12T03:24:34.836Z,0.52
2023-04-12T03:27:05.672Z,0.65
2023-04-12T03:29:32.336Z,1.20
2023-04-12T03:31:59.674Z,0.88
2023-04-12T03:34:32.368Z,1.30
2023-04-12T03:37:00.974Z,0.50
2023-04-12T03:39:28.083Z,0.40
2023-04-12T03:41:55.536Z,1.15
2023-04-12T03:44:22.591Z,0.60
2023-04-12T03:46:49.189Z,3.20
2023-04-12T03:49:16.696Z,1.08
2023-04-12T03:51:43.905Z,0.88
2023-04-12T03:54:11.696Z,1.52
2023-04-12T03:56:38.774Z,0.60
2023-04-12T03:59:07.721Z,0.77
2023-04-12T04:01:35.193Z,1.23
2023-04-12T04:04:03.032Z,0.85
2023-04-12T04:06:30.014Z,1.48
2023-04-12T04:08:57.859Z,1.30
2023-04-12T04:11:25.539Z,0.35
2023-04-12T04:13:52.102Z,0.43
2023-04-12T04:16:18.753Z,0.75
2023-04-12T04:18:45.411Z,0.30
2023-04-12T04:21:11.942Z,0.63
2023-04-12T04:23:38.901Z,1.52
2023-04-12T04:26:11.950Z,0.80
2023-04-12T04:28:39.775Z,0.50
2023-04-12T04:31:06.621Z,0.88
2023-04-12T04:33:33.702Z,1.30
2023-04-12T04:36:01.008Z,1.23
2023-04-12T04:38:28.275Z,1.65
2023-04-12T04:40:55.252Z,0.60
2023-04-12T04:43:22.180Z,0.95
2023-04-12T04:45:54.588Z,0.80
2023-04-12T04:48:21.366Z,0.65
2023-04-12T04:50:48.136Z,1.45
2023-04-12T04:53:18.640Z,0.65
2023-04-12T04:58:12.598Z,0.65
2023-04-12T05:00:39.329Z,0.57
2023-04-12T05:03:06.319Z,0.93
2023-04-12T05:05:33.373Z,1.02
2023-04-12T05:07:59.955Z,0.82
2023-04-12T05:10:26.549Z,1.17
2023-04-12T05:12:53.145Z,1.27
2023-04-12T05:15:21.285Z,0.77
2023-04-12T05:17:47.930Z,0.73
2023-04-12T05:20:14.673Z,0.90
2023-04-12T05:22:41.256Z,0.85
2023-04-12T05:25:08.188Z,0.60
2023-04-12T05:27:34.751Z,0.55
2023-04-12T05:30:01.442Z,1.38
2023-04-12T05:32:28.010Z,2.25
2023-04-12T05:34:54.635Z,1.15
2023-04-12T05:37:21.168Z,1.33
2023-04-12T05:39:47.800Z,0.85
2023-04-12T05:42:14.406Z,0.80
2023-04-12T05:44:41.544Z,1.63
2023-04-12T05:47:08.180Z,1.48
2023-04-12T05:49:34.899Z,1.50
2023-04-12T05:52:02.314Z,1.38
2023-04-12T05:54:28.998Z,2.13
2023-04-12T05:56:55.559Z,1.08
2023-04-12T05:59:22.693Z,1.58
2023-04-12T06:01:49.363Z,1.70
2023-04-12T06:04:16.168Z,1.70
2023-04-12T06:06:43.653Z,1.77
2023-04-12T06:09:10.605Z,1.38
2023-04-12T06:11:39.235Z,1.80
2023-04-12T06:14:06.192Z,1.48
2023-04-12T06:16:32.754Z,1.77
2023-04-12T06:18:59.575Z,2.88
2023-04-12T06:21:26.773Z,2.97
2023-04-12T06:23:53.358Z,1.10
2023-04-12T06:26:19.977Z,1.63
2023-04-12T06:28:46.876Z,1.92
2023-04-12T06:31:13.434Z,2.10
2023-04-12T06:33:39.973Z,1.58
2023-04-12T06:36:07.098Z,2.33
2023-04-12T06:38:33.940Z,2.67
2023-04-12T06:41:00.685Z,2.17
2023-04-12T06:43:27.239Z,3.22
2023-04-12T06:45:54.267Z,2.50
2023-04-12T06:48:20.890Z,2.03
2023-04-12T06:50:47.563Z,3.42
2023-04-12T06:53:14.238Z,3.95
2023-04-12T06:55:41.368Z,2.65
2023-04-12T06:58:07.939Z,2.92
2023-04-12T07:00:34.848Z,2.72
2023-04-12T07:03:01.832Z,2.17
2023-04-12T07:05:28.523Z,2.22
2023-04-12T07:07:55.057Z,2.63
2023-04-12T07:10:21.540Z,1.52
2023-04-12T07:12:48.027Z,2.70
2023-04-12T07:15:14.554Z,2.45
2023-04-12T07:17:41.232Z,2.47
2023-04-12T07:20:08.035Z,2.05
2023-04-12T07:22:34.568Z,2.13
2023-04-12T07:25:01.150Z,3.40
2023-04-12T07:27:27.715Z,2.55
2023-04-12T07:29:54.602Z,1.95
2023-04-12T07:32:21.487Z,4.30
2023-04-12T07:34:48.059Z,2.15
2023-04-12T07:37:14.644Z,2.88
2023-04-12T07:39:41.374Z,2.35
2023-04-12T07:42:07.947Z,2.88
2023-04-12T07:44:37.111Z,2.03
2023-04-12T07:47:05.227Z,3.50
2023-04-12T07:49:31.726Z,1.98
2023-04-12T07:51:58.693Z,2.42
2023-04-12T07:54:28.045Z,3.92
2023-04-12T07:57:04.916Z,2.45
2023-04-12T07:59:31.964Z,2.13
2023-04-12T08:01:59.071Z,4.80
2023-04-12T08:04:25.903Z,2.47
2023-04-12T08:06:52.485Z,3.95
2023-04-12T08:09:18.997Z,2.30
2023-04-12T08:11:45.690Z,5.10
2023-04-12T08:14:12.139Z,2.65
2023-04-12T08:16:39.118Z,2.88
2023-04-12T08:19:05.582Z,2.17
2023-04-12T08:21:32.606Z,3.58
2023-04-12T08:23:59.671Z,2.97
2023-04-12T08:26:30.002Z,1.70
2023-04-12T08:28:57.743Z,2.42
2023-04-12T08:31:24.473Z,3.25
2023-04-12T08:33:51.202Z,1.70
2023-04-12T08:36:17.781Z,2.53
2023-04-12T08:38:46.401Z,3.22
2023-04-12T08:41:14.161Z,2.60
2023-04-12T08:43:45.089Z,2.83
2023-04-12T08:46:15.606Z,3.28
2023-04-12T08:48:47.140Z,3.03
2023-04-12T08:51:16.549Z,2.97
2023-04-12T08:53:43.350Z,2.70
2023-04-12T08:56:13.912Z,3.30
2023-04-12T09:01:19.923Z,1.75
2023-04-12T09:03:47.067Z,3.58
2023-04-12T09:06:13.959Z,2.42
2023-04-12T09:08:54.593Z,3.67
2023-04-12T09:11:23.460Z,23.05
2023-04-12T09:13:50.299Z,16.27
2023-04-12T09:16:17.247Z,23.75
2023-04-12T09:18:51.263Z,22.58
2023-04-12T09:21:18.535Z,21.90
2023-04-12T09:23:45.369Z,21.42
2023-04-12T09:26:28.866Z,19.42
2023-04-12T09:28:55.456Z,15.60
2023-04-12T09:31:21.999Z,17.98
2023-04-12T09:33:48.682Z,15.52
2023-04-12T09:36:17.418Z,15.05
2023-04-12T09:39:04.379Z,14.32
2023-04-12T09:41:32.028Z,13.90
2023-04-12T09:44:01.910Z,10.90
2023-04-12T09:46:28.777Z,11.55
2023-04-12T09:48:59.102Z,10.18
2023-04-12T09:51:31.184Z,9.63
2023-04-12T09:54:03.005Z,9.05
2023-04-12T09:56:32.377Z,10.43
2023-04-12T09:59:04.406Z,9.90
2023-04-12T10:01:40.122Z,8.93
2023-04-12T10:04:08.284Z,10.27
2023-04-12T10:06:37.268Z,9.75
2023-04-12T10:09:05.041Z,6.20
2023-04-12T10:11:33.970Z,8.25
2023-04-12T10:14:02.522Z,11.95
2023-04-12T10:16:31.050Z,20.80
2023-04-12T10:19:04.184Z,23.08
2023-04-12T10:21:31.393Z,18.85
2023-04-12T10:23:58.216Z,19.73
2023-04-12T10:26:24.800Z,20.15
2023-04-12T10:29:26.396Z,16.15
2023-04-12T10:31:57.622Z,17.00
2023-04-12T10:34:28.096Z,13.82
2023-04-12T10:36:57.214Z,15.20
2023-04-12T10:39:42.244Z,15.27
2023-04-12T10:42:19.901Z,13.13
2023-04-12T10:44:47.619Z,12.57
2023-04-12T10:47:14.511Z,13.38
2023-04-12T10:49:41.429Z,10.23
2023-04-12T10:52:13.746Z,10.10
2023-04-12T10:54:40.728Z,9.60
2023-04-12T10:57:08.041Z,9.45
2023-04-12T11:00:07.216Z,9.70
2023-04-12T11:02:36.678Z,8.35
2023-04-12T11:05:11.161Z,9.93
2023-04-12T11:07:43.075Z,8.23
2023-04-12T11:10:17.301Z,6.43
2023-04-12T11:12:57.117Z,5.45
2023-04-12T11:15:27.122Z,5.50
2023-04-12T11:17:57.642Z,4.68
2023-04-12T11:20:27.225Z,4.93
2023-04-12T11:22:54.039Z,8.43
2023-04-12T11:25:20.848Z,5.85
2023-04-12T11:27:51.907Z,3.83
2023-04-12T11:30:19.956Z,6.68
2023-04-12T11:32:47.918Z,5.95
2023-04-12T11:35:20.347Z,5.78
2023-04-12T11:37:47.198Z,6.90
2023-04-12T11:40:14.757Z,4.82
2023-04-12T11:42:41.607Z,4.03
2023-04-12T11:45:15.930Z,3.30
2023-04-12T11:47:45.857Z,4.18
2023-04-12T11:50:12.590Z,5.60
2023-04-12T11:52:41.175Z,2.97
2023-04-12T11:55:11.107Z,4.55
2023-04-12T11:57:38.804Z,4.03
2023-04-12T12:00:06.559Z,6.53
2023-04-12T12:02:42.975Z,3.60
2023-04-12T12:05:16.746Z,3.85
2023-04-12T12:07:43.879Z,5.18
2023-04-12T12:10:10.784Z,3.65
2023-04-12T12:12:37.368Z,3.78
2023-04-12T12:15:04.252Z,3.42
2023-04-12T12:17:35.837Z,3.47
2023-04-12T12:20:04.731Z,3.08
2023-04-12T12:22:31.428Z,3.92
2023-04-12T12:25:00.296Z,3.40
2023-04-12T12:27:38.464Z,4.35
2023-04-12T12:30:08.452Z,4.70
2023-04-12T12:32:37.129Z,4.70
2023-04-12T12:35:09.640Z,4.78
2023-04-12T12:37:36.582Z,3.55
2023-04-12T12:40:14.149Z,2.22
2023-04-12T12:42:55.133Z,2.70
2023-04-12T12:45:24.343Z,1.58
2023-04-12T12:47:54.990Z,4.20
2023-04-12T12:50:26.830Z,1.92
2023-04-12T12:52:54.816Z,3.20
2023-04-12T12:55:22.780Z,2.22
2023-04-12T12:58:06.145Z,2.63
2023-04-12T13:00:34.624Z,2.55
2023-04-12T13:03:01.762Z,4.35
2023-04-12T13:05:28.698Z,4.25
2023-04-12T13:07:55.607Z,2.30
2023-04-12T13:10:22.287Z,2.22
2023-04-12T13:12:48.821Z,1.77
2023-04-12T13:17:45.001Z,2.50
2023-04-12T13:20:11.652Z,2.42
2023-04-12T13:22:38.351Z,2.72
2023-04-12T13:25:05.392Z,0.80
2023-04-12T13:27:32.072Z,3.25
2023-04-12T13:29:58.799Z,2.58
2023-04-12T13:32:25.908Z,2.22
2023-04-12T13:34:52.569Z,2.63
2023-04-12T13:37:19.077Z,1.65
2023-04-12T13:39:45.824Z,2.55
2023-04-12T13:42:12.491Z,1.27
2023-04-12T13:44:39.048Z,4.20
2023-04-12T13:47:05.705Z,2.38
2023-04-12T13:49:32.479Z,1.52
2023-04-12T13:51:59.010Z,1.35
2023-04-12T13:54:26.066Z,2.35
2023-04-12T13:56:52.570Z,1.83
2023-04-12T13:59:19.100Z,2.75
2023-04-12T14:01:45.832Z,1.15
2023-04-12T14:04:12.760Z,2.08
2023-04-12T14:06:39.366Z,1.40
2023-04-12T14:09:05.853Z,1.23
2023-04-12T14:11:46.117Z,3.25
2023-04-12T14:14:14.871Z,1.42
2023-04-12T14:19:09.695Z,1.90
2023-04-12T14:21:36.528Z,2.17
2023-04-12T14:24:03.604Z,0.90
2023-04-12T14:26:30.227Z,1.63
2023-04-12T14:28:56.936Z,1.52
2023-04-12T14:31:23.710Z,2.15
2023-04-12T14:33:50.339Z,0.93
2023-04-12T14:36:17.023Z,1.67
2023-04-12T14:38:44.285Z,1.20
2023-04-12T14:41:11.552Z,1.98
2023-04-12T14:43:38.056Z,1.13
2023-04-12T14:46:04.932Z,1.30
2023-04-12T14:48:31.607Z,1.17
2023-04-12T14:50:58.223Z,1.27
2023-04-12T14:53:24.793Z,1.45
2023-04-12T14:55:51.373Z,2.53
2023-04-12T14:58:18.257Z,2.08
2023-04-12T15:00:44.768Z,2.42
2023-04-12T15:03:11.522Z,4.63
2023-04-12T15:05:38.138Z,3.03
2023-04-12T15:08:04.962Z,2.80
2023-04-12T15:10:31.747Z,1.60
2023-04-12T15:12:58.375Z,1.83
2023-04-12T15:15:24.971Z,1.70
2023-04-12T15:17:51.524Z,1.65
2023-04-12T15:20:18.105Z,1.90
2023-04-12T15:22:44.711Z,2.53
2023-04-12T15:25:11.871Z,2.95
2023-04-12T15:27:38.540Z,1.95
2023-04-12T15:30:08.287Z,2.72
2023-04-12T15:32:38.591Z,2.05
2023-04-12T15:35:22.830Z,2.38
2023-04-12T15:37:54.943Z,1.83
2023-04-12T15:40:22.994Z,1.45
2023-04-12T15:42:49.723Z,0.80
2023-04-12T15:45:16.220Z,3.80
2023-04-12T15:47:42.862Z,1.65
2023-04-12T15:50:09.752Z,1.63
2023-04-12T15:52:36.444Z,3.78
2023-04-12T15:55:04.771Z,3.67
2023-04-12T15:57:31.553Z,2.63
2023-04-12T15:59:59.533Z,1.67
2023-04-12T16:02:26.666Z,2.33
2023-04-12T16:04:56.117Z,2.58
2023-04-12T16:07:22.815Z,2.40
2023-04-12T16:09:49.508Z,2.78
2023-04-12T16:12:16.058Z,1.63
2023-04-12T16:14:42.675Z,2.30
2023-04-12T16:17:09.246Z,2.72
2023-04-12T16:19:35.916Z,3.20
2023-04-12T16:22:03.548Z,3.15
2023-04-12T16:24:30.217Z,2.85
2023-04-12T16:26:57.452Z,1.85
2023-04-12T16:29:24.417Z,3.08
2023-04-12T16:31:52.220Z,1.52
2023-04-12T16:34:21.914Z,2.05
2023-04-12T16:36:49.054Z,2.13
2023-04-12T16:39:16.587Z,3.88
2023-04-12T16:41:43.960Z,1.80
2023-04-12T16:44:10.741Z,1.73
2023-04-12T16:46:37.661Z,3.50
2023-04-12T16:49:04.826Z,2.28
2023-04-12T16:51:36.702Z,2.97
2023-04-12T16:54:04.087Z,2.67
2023-04-12T16:56:30.661Z,2.70
2023-04-12T16:58:59.008Z,2.65
2023-04-12T17:01:25.656Z,2.28
2023-04-12T17:03:52.415Z,1.98
2023-04-12T17:06:19.528Z,1.95
2023-04-12T17:08:46.636Z,2.03
2023-04-12T17:11:13.306Z,2.72
2023-04-12T17:13:39.917Z,1.60
2023-04-12T17:16:06.974Z,3.08
2023-04-12T17:18:34.709Z,3.28
2023-04-12T17:21:01.388Z,2.55
2023-04-12T17:23:28.738Z,2.33
2023-04-12T17:25:56.096Z,2.38
2023-04-12T17:28:22.612Z,1.67
2023-04-12T17:30:49.244Z,4.15
2023-04-12T17:33:18.461Z,2.35
2023-04-12T17:35:46.311Z,1.63
2023-04-12T17:38:12.965Z,2.58
2023-04-12T17:40:39.802Z,3.05
2023-04-12T17:43:06.345Z,1.92
2023-04-12T17:45:33.778Z,2.40
2023-04-12T17:48:00.468Z,1.67
2023-04-12T17:50:27.178Z,2.50
2023-04-12T17:52:55.450Z,3.63
2023-04-12T17:55:25.884Z,1.67
2023-04-12T18:00:24.061Z,2.17
2023-04-12T18:02:51.051Z,2.33
2023-04-12T18:05:18.309Z,1.67
2023-04-12T18:07:44.787Z,2.25
2023-04-12T18:10:15.609Z,3.28
2023-04-12T18:12:44.192Z,2.10
2023-04-12T18:15:11.380Z,2.63
2023-04-12T18:17:39.742Z,2.45
2023-04-12T18:20:11.394Z,2.38
2023-04-12T18:22:38.804Z,2.20
2023-04-12T18:25:06.764Z,2.72
2023-04-12T18:27:33.353Z,1.25
2023-04-12T18:30:01.400Z,1.13
2023-04-12T18:32:28.012Z,2.03
2023-04-12T18:34:54.812Z,2.25
2023-04-12T18:37:21.654Z,2.38
2023-04-12T18:39:48.195Z,2.10
2023-04-12T18:42:14.772Z,2.13
2023-04-12T18:44:42.132Z,2.92
2023-04-12T18:47:08.941Z,1.80
2023-04-12T18:49:35.488Z,1.83
2023-04-12T18:52:02.052Z,1.73
2023-04-12T18:54:29.036Z,2.75
2023-04-12T18:56:58.009Z,2.45
2023-04-12T18:59:25.030Z,1.73
2023-04-12T19:01:51.592Z,2.55
2023-04-12T19:04:18.566Z,1.50
2023-04-12T19:06:46.308Z,3.30
2023-04-12T19:09:12.987Z,1.92
2023-04-12T19:11:40.125Z,2.42
2023-04-12T19:14:07.620Z,2.50
2023-04-12T19:16:35.188Z,2.40
2023-04-12T19:19:02.158Z,2.80
2023-04-12T19:21:28.996Z,2.33
2023-04-12T19:23:55.742Z,2.13
2023-04-12T19:26:23.018Z,2.92
2023-04-12T19:28:52.380Z,1.20
2023-04-12T19:31:19.097Z,2.17
2023-04-12T19:33:45.980Z,2.75
2023-04-12T19:36:13.212Z,1.90
2023-04-12T19:38:43.080Z,2.05
2023-04-12T19:41:09.714Z,2.88
2023-04-12T19:43:36.255Z,1.50
2023-04-12T19:46:03.733Z,2.78
2023-04-12T19:48:31.052Z,2.47
2023-04-12T19:50:58.008Z,4.28
2023-04-12T19:53:24.558Z,2.30
2023-04-12T19:55:52.447Z,2.22
2023-04-12T19:58:18.998Z,2.08
2023-04-12T20:00:51.817Z,2.42
2023-04-12T20:03:18.499Z,2.45
2023-04-12T20:05:46.037Z,1.35
2023-04-12T20:08:12.660Z,1.25
2023-04-12T20:10:39.242Z,1.58
2023-04-12T20:13:09.734Z,2.05
2023-04-12T20:18:05.001Z,1.67
2023-04-12T20:20:32.879Z,2.17
2023-04-12T20:22:59.461Z,3.80
2023-04-12T20:25:25.938Z,1.17
2023-04-12T20:27:52.647Z,1.50
2023-04-12T20:30:21.163Z,2.42
2023-04-12T20:32:54.166Z,1.98
2023-04-12T20:35:21.595Z,1.52
2023-04-12T20:37:50.546Z,2.08
2023-04-12T20:40:18.085Z,2.08
2023-04-12T20:42:45.290Z,1.90
2023-04-12T20:45:12.229Z,1.17
2023-04-12T20:47:38.881Z,1.30
2023-04-12T20:50:06.060Z,2.47
2023-04-12T20:52:32.574Z,1.98
2023-04-12T20:54:59.072Z,0.98
2023-04-12T20:57:27.620Z,1.42
2023-04-12T20:59:55.433Z,1.40
2023-04-12T21:02:22.350Z,0.77
2023-04-12T21:04:49.182Z,1.17
2023-04-12T21:07:16.000Z,1.27
2023-04-12T21:09:42.504Z,0.73
2023-04-12T21:12:09.738Z,1.85
2023-04-12T21:14:37.788Z,1.70
2023-04-12T21:17:07.094Z,1.67
2023-04-12T21:19:38.954Z,0.73
2023-04-12T21:22:07.069Z,1.77
2023-04-12T21:24:38.168Z,1.35
2023-04-12T21:27:07.418Z,1.33
2023-04-12T21:29:41.162Z,0.77
2023-04-12T21:32:08.586Z,0.98
2023-04-12T21:34:35.559Z,1.80
2023-04-12T21:37:02.735Z,1.45
2023-04-12T21:39:29.340Z,0.95
2023-04-12T21:41:59.081Z,0.80
2023-04-12T21:44:25.772Z,1.92
2023-04-12T21:46:52.461Z,1.75
2023-04-12T21:49:18.989Z,1.25
2023-04-12T21:51:46.867Z,1.40
2023-04-12T21:54:13.448Z,1.00
2023-04-12T21:56:39.926Z,0.55
2023-04-12T21:59:07.175Z,1.20
2023-04-12T22:01:34.632Z,1.02
2023-04-12T22:04:01.502Z,1.27
2023-04-12T22:06:28.075Z,0.82
2023-04-12T22:08:55.561Z,1.27
2023-04-12T22:11:22.104Z,0.60
2023-04-12T22:13:48.630Z,0.82
2023-04-12T22:16:15.787Z,1.05
2023-04-12T22:18:47.022Z,0.73
2023-04-12T22:21:13.688Z,0.95
2023-04-12T22:23:40.702Z,1.23
2023-04-12T22:26:08.687Z,0.80
2023-04-12T22:28:38.524Z,0.93
2023-04-12T22:31:06.114Z,0.45
2023-04-12T22:33:32.773Z,1.00
2023-04-12T22:35:59.288Z,1.63
2023-04-12T22:38:25.956Z,0.57
2023-04-12T22:40:54.529Z,0.88
2023-04-12T22:43:22.838Z,1.60
2023-04-12T22:45:49.401Z,0.93
2023-04-12T22:48:15.967Z,1.20
2023-04-12T22:50:44.561Z,0.75
2023-04-12T22:53:11.540Z,0.68
2023-04-12T22:55:39.038Z,0.47
2023-04-12T22:58:07.189Z,0.93
2023-04-12T23:00:36.701Z,0.70
2023-04-12T23:03:04.234Z,1.58
2023-04-12T23:05:31.020Z,1.58
2023-04-12T23:07:57.671Z,0.93
2023-04-12T23:10:24.130Z,1.23
2023-04-12T23:12:54.630Z,0.55
2023-04-12T23:17:49.996Z,0.68
2023-04-12T23:20:17.110Z,1.50
2023-04-12T23:22:56.697Z,1.17
2023-04-12T23:25:37.850Z,1.10
2023-04-12T23:28:13.455Z,0.80
2023-04-12T23:30:49.019Z,1.67
2023-04-12T23:33:20.660Z,0.57
2023-04-12T23:35:49.444Z,1.38
2023-04-12T23:38:23.221Z,0.63
2023-04-12T23:40:53.916Z,0.95
2023-04-12T23:43:25.043Z,0.77
2023-04-12T23:45:52.621Z,0.45
2023-04-12T23:48:19.322Z,1.35
2023-04-12T23:50:46.040Z,0.30
2023-04-12T23:53:12.988Z,0.50
2023-04-12T23:55:39.898Z,0.52
2023-04-12T23:58:06.604Z,0.57
